sensor_id;sensor_type;location;lat;lon;timestamp;temperature;humidity
24645;DHT22;12780;45.502;9.146;2022-07-06T00:01:31;28.40;99.90
24645;DHT22;12780;45.502;9.146;2022-07-06T00:03:56;28.40;99.90
24645;DHT22;12780;45.502;9.146;2022-07-06T00:06:23;28.40;99.90
24645;DHT22;12780;45.502;9.146;2022-07-06T00:08:49;28.30;99.90
24645;DHT22;12780;45.502;9.146;2022-07-06T00:11:15;28.30;99.90
24645;DHT22;12780;45.502;9.146;2022-07-06T00:13:41;28.20;99.90
24645;DHT22;12780;45.502;9.146;2022-07-06T00:16:06;28.20;99.90
24645;DHT22;12780;45.502;9.146;2022-07-06T00:18:32;28.10;99.90
24645;DHT22;12780;45.502;9.146;2022-07-06T00:20:58;28.00;99.90
24645;DHT22;12780;45.502;9.146;2022-07-06T00:23:23;28.00;99.90
24645;DHT22;12780;45.502;9.146;2022-07-06T00:25:49;27.90;99.90
24645;DHT22;12780;45.502;9.146;2022-07-06T00:28:15;27.90;99.90
24645;DHT22;12780;45.502;9.146;2022-07-06T00:30:41;27.90;99.90
24645;DHT22;12780;45.502;9.146;2022-07-06T00:33:07;27.80;99.90
24645;DHT22;12780;45.502;9.146;2022-07-06T00:35:33;27.80;99.90
24645;DHT22;12780;45.502;9.146;2022-07-06T00:37:59;27.90;99.90
24645;DHT22;12780;45.502;9.146;2022-07-06T00:40:25;27.80;99.90
24645;DHT22;12780;45.502;9.146;2022-07-06T00:42:50;27.80;99.90
24645;DHT22;12780;45.502;9.146;2022-07-06T00:45:17;27.80;99.90
24645;DHT22;12780;45.502;9.146;2022-07-06T00:47:43;27.80;99.90
24645;DHT22;12780;45.502;9.146;2022-07-06T00:50:12;27.70;99.90
24645;DHT22;12780;45.502;9.146;2022-07-06T00:53:00;27.70;99.90
24645;DHT22;12780;45.502;9.146;2022-07-06T00:55:28;27.80;99.90
24645;DHT22;12780;45.502;9.146;2022-07-06T00:57:55;27.80;99.90
24645;DHT22;12780;45.502;9.146;2022-07-06T01:00:23;27.70;99.90
24645;DHT22;12780;45.502;9.146;2022-07-06T01:02:50;27.70;99.90
24645;DHT22;12780;45.502;9.146;2022-07-06T01:05:16;27.70;99.90
24645;DHT22;12780;45.502;9.146;2022-07-06T01:07:44;27.70;99.90
24645;DHT22;12780;45.502;9.146;2022-07-06T01:10:12;27.70;99.90
24645;DHT22;12780;45.502;9.146;2022-07-06T01:12:40;27.70;99.90
24645;DHT22;12780;45.502;9.146;2022-07-06T01:15:09;27.60;99.90
24645;DHT22;12780;45.502;9.146;2022-07-06T01:17:35;27.60;99.90
24645;DHT22;12780;45.502;9.146;2022-07-06T01:22:39;27.50;99.90
24645;DHT22;12780;45.502;9.146;2022-07-06T01:25:05;27.50;99.90
24645;DHT22;12780;45.502;9.146;2022-07-06T01:27:32;27.50;99.90
24645;DHT22;12780;45.502;9.146;2022-07-06T01:30:00;27.50;99.90
24645;DHT22;12780;45.502;9.146;2022-07-06T01:32:25;27.50;99.90
24645;DHT22;12780;45.502;9.146;2022-07-06T01:34:51;27.40;99.90
24645;DHT22;12780;45.502;9.146;2022-07-06T01:37:17;27.40;99.90
24645;DHT22;12780;45.502;9.146;2022-07-06T01:39:42;27.50;99.90
24645;DHT22;12780;45.502;9.146;2022-07-06T01:42:08;27.50;99.90
24645;DHT22;12780;45.502;9.146;2022-07-06T01:44:34;27.50;99.90
24645;DHT22;12780;45.502;9.146;2022-07-06T01:46:59;27.50;99.90
24645;DHT22;12780;45.502;9.146;2022-07-06T01:49:25;27.50;99.90
24645;DHT22;12780;45.502;9.146;2022-07-06T01:51:50;27.50;99.90
24645;DHT22;12780;45.502;9.146;2022-07-06T01:54:16;27.50;99.90
24645;DHT22;12780;45.502;9.146;2022-07-06T01:56:42;27.50;99.90
24645;DHT22;12780;45.502;9.146;2022-07-06T01:59:07;27.50;99.90
24645;DHT22;12780;45.502;9.146;2022-07-06T02:01:33;27.50;99.90
24645;DHT22;12780;45.502;9.146;2022-07-06T02:03:58;27.50;99.90
24645;DHT22;12780;45.502;9.146;2022-07-06T02:06:24;27.50;99.90
24645;DHT22;12780;45.502;9.146;2022-07-06T02:08:49;27.50;99.90
24645;DHT22;12780;45.502;9.146;2022-07-06T02:11:17;27.40;99.90
24645;DHT22;12780;45.502;9.146;2022-07-06T02:13:42;27.40;99.90
24645;DHT22;12780;45.502;9.146;2022-07-06T02:16:08;27.40;99.90
24645;DHT22;12780;45.502;9.146;2022-07-06T02:18:34;27.40;99.90
24645;DHT22;12780;45.502;9.146;2022-07-06T02:21:00;27.30;99.90
24645;DHT22;12780;45.502;9.146;2022-07-06T02:23:25;27.40;99.90
24645;DHT22;12780;45.502;9.146;2022-07-06T02:25:51;27.30;99.90
24645;DHT22;12780;45.502;9.146;2022-07-06T02:28:17;27.30;99.90
24645;DHT22;12780;45.502;9.146;2022-07-06T02:30:43;27.30;99.90
24645;DHT22;12780;45.502;9.146;2022-07-06T02:33:08;27.30;99.90
24645;DHT22;12780;45.502;9.146;2022-07-06T02:35:34;27.30;99.90
24645;DHT22;12780;45.502;9.146;2022-07-06T02:38:00;27.30;99.90
24645;DHT22;12780;45.502;9.146;2022-07-06T02:40:25;27.20;99.90
24645;DHT22;12780;45.502;9.146;2022-07-06T02:42:51;27.20;99.90
24645;DHT22;12780;45.502;9.146;2022-07-06T02:45:16;27.20;99.90
24645;DHT22;12780;45.502;9.146;2022-07-06T02:47:42;27.10;99.90
24645;DHT22;12780;45.502;9.146;2022-07-06T02:50:08;27.10;99.90
24645;DHT22;12780;45.502;9.146;2022-07-06T02:52:33;27.10;99.90
24645;DHT22;12780;45.502;9.146;2022-07-06T02:54:59;27.10;99.90
24645;DHT22;12780;45.502;9.146;2022-07-06T02:57:24;27.10;99.90
24645;DHT22;12780;45.502;9.146;2022-07-06T02:59:50;27.00;99.90
24645;DHT22;12780;45.502;9.146;2022-07-06T03:02:16;26.90;99.90
24645;DHT22;12780;45.502;9.146;2022-07-06T03:04:42;26.90;99.90
24645;DHT22;12780;45.502;9.146;2022-07-06T03:07:08;26.80;99.90
24645;DHT22;12780;45.502;9.146;2022-07-06T03:09:34;26.80;99.90
24645;DHT22;12780;45.502;9.146;2022-07-06T03:12:00;26.70;99.90
24645;DHT22;12780;45.502;9.146;2022-07-06T03:14:25;26.70;99.90
24645;DHT22;12780;45.502;9.146;2022-07-06T03:16:52;26.60;99.90
24645;DHT22;12780;45.502;9.146;2022-07-06T03:19:17;26.60;99.90
24645;DHT22;12780;45.502;9.146;2022-07-06T03:21:43;26.60;99.90
24645;DHT22;12780;45.502;9.146;2022-07-06T03:24:09;26.50;99.90
24645;DHT22;12780;45.502;9.146;2022-07-06T03:26:34;26.40;99.90
24645;DHT22;12780;45.502;9.146;2022-07-06T03:29:00;26.40;99.90
24645;DHT22;12780;45.502;9.146;2022-07-06T03:31:26;26.30;99.90
24645;DHT22;12780;45.502;9.146;2022-07-06T03:33:52;26.30;99.90
24645;DHT22;12780;45.502;9.146;2022-07-06T03:36:17;26.20;99.90
24645;DHT22;12780;45.502;9.146;2022-07-06T03:38:43;26.20;99.90
24645;DHT22;12780;45.502;9.146;2022-07-06T03:41:08;26.10;99.90
24645;DHT22;12780;45.502;9.146;2022-07-06T03:43:34;26.00;99.90
24645;DHT22;12780;45.502;9.146;2022-07-06T03:46:00;26.00;99.90
24645;DHT22;12780;45.502;9.146;2022-07-06T03:48:26;26.00;99.90
24645;DHT22;12780;45.502;9.146;2022-07-06T03:50:52;26.00;99.90
24645;DHT22;12780;45.502;9.146;2022-07-06T03:53:17;26.00;99.90
24645;DHT22;12780;45.502;9.146;2022-07-06T03:55:43;26.00;99.90
24645;DHT22;12780;45.502;9.146;2022-07-06T03:58:09;25.90;99.90
24645;DHT22;12780;45.502;9.146;2022-07-06T04:00:34;25.90;99.90
24645;DHT22;12780;45.502;9.146;2022-07-06T04:03:00;25.90;99.90
24645;DHT22;12780;45.502;9.146;2022-07-06T04:05:26;25.90;99.90
24645;DHT22;12780;45.502;9.146;2022-07-06T04:07:52;25.80;99.90
24645;DHT22;12780;45.502;9.146;2022-07-06T04:10:18;25.80;99.90
24645;DHT22;12780;45.502;9.146;2022-07-06T04:12:44;25.80;99.90
24645;DHT22;12780;45.502;9.146;2022-07-06T04:15:10;25.80;99.90
24645;DHT22;12780;45.502;9.146;2022-07-06T04:17:36;25.80;99.90
24645;DHT22;12780;45.502;9.146;2022-07-06T04:20:18;25.80;99.90
24645;DHT22;12780;45.502;9.146;2022-07-06T04:22:43;25.80;99.90
24645;DHT22;12780;45.502;9.146;2022-07-06T04:25:09;25.80;99.90
24645;DHT22;12780;45.502;9.146;2022-07-06T04:27:35;25.80;99.90
24645;DHT22;12780;45.502;9.146;2022-07-06T04:30:02;25.70;99.90
24645;DHT22;12780;45.502;9.146;2022-07-06T04:32:28;25.70;99.90
24645;DHT22;12780;45.502;9.146;2022-07-06T04:34:54;25.70;99.90
24645;DHT22;12780;45.502;9.146;2022-07-06T04:37:20;25.70;99.90
24645;DHT22;12780;45.502;9.146;2022-07-06T04:39:45;25.70;99.90
24645;DHT22;12780;45.502;9.146;2022-07-06T04:42:11;25.60;99.90
24645;DHT22;12780;45.502;9.146;2022-07-06T04:44:36;25.70;99.90
24645;DHT22;12780;45.502;9.146;2022-07-06T04:47:02;25.60;99.90
24645;DHT22;12780;45.502;9.146;2022-07-06T04:49:28;25.60;99.90
24645;DHT22;12780;45.502;9.146;2022-07-06T04:51:53;25.60;99.90
24645;DHT22;12780;45.502;9.146;2022-07-06T04:54:19;25.60;99.90
24645;DHT22;12780;45.502;9.146;2022-07-06T04:56:45;25.60;99.90
24645;DHT22;12780;45.502;9.146;2022-07-06T04:59:12;25.60;99.90
24645;DHT22;12780;45.502;9.146;2022-07-06T05:01:37;25.60;99.90
24645;DHT22;12780;45.502;9.146;2022-07-06T05:04:03;25.60;99.90
24645;DHT22;12780;45.502;9.146;2022-07-06T05:06:29;25.50;99.90
24645;DHT22;12780;45.502;9.146;2022-07-06T05:08:54;25.50;99.90
24645;DHT22;12780;45.502;9.146;2022-07-06T05:11:20;25.50;99.90
24645;DHT22;12780;45.502;9.146;2022-07-06T05:13:46;25.50;99.90
24645;DHT22;12780;45.502;9.146;2022-07-06T05:16:12;25.50;99.90
24645;DHT22;12780;45.502;9.146;2022-07-06T05:18:37;25.50;99.90
24645;DHT22;12780;45.502;9.146;2022-07-06T05:21:03;25.50;99.90
24645;DHT22;12780;45.502;9.146;2022-07-06T05:23:28;25.50;99.90
24645;DHT22;12780;45.502;9.146;2022-07-06T05:25:54;25.50;99.90
24645;DHT22;12780;45.502;9.146;2022-07-06T05:28:20;25.40;99.90
24645;DHT22;12780;45.502;9.146;2022-07-06T05:30:45;25.50;99.90
24645;DHT22;12780;45.502;9.146;2022-07-06T05:33:11;25.40;99.90
24645;DHT22;12780;45.502;9.146;2022-07-06T05:35:37;25.50;99.90
24645;DHT22;12780;45.502;9.146;2022-07-06T05:38:02;25.40;99.90
24645;DHT22;12780;45.502;9.146;2022-07-06T05:40:28;25.40;99.90
24645;DHT22;12780;45.502;9.146;2022-07-06T05:42:54;25.30;99.90
24645;DHT22;12780;45.502;9.146;2022-07-06T05:45:19;25.30;99.90
24645;DHT22;12780;45.502;9.146;2022-07-06T05:47:45;25.40;99.90
24645;DHT22;12780;45.502;9.146;2022-07-06T05:50:29;25.50;99.90
24645;DHT22;12780;45.502;9.146;2022-07-06T05:53:00;25.50;99.90
24645;DHT22;12780;45.502;9.146;2022-07-06T05:55:26;25.30;99.90
24645;DHT22;12780;45.502;9.146;2022-07-06T05:57:53;25.30;99.90
24645;DHT22;12780;45.502;9.146;2022-07-06T06:00:22;25.30;99.90
24645;DHT22;12780;45.502;9.146;2022-07-06T06:02:48;25.40;99.90
24645;DHT22;12780;45.502;9.146;2022-07-06T06:05:14;25.40;99.90
24645;DHT22;12780;45.502;9.146;2022-07-06T06:07:41;25.50;99.90
24645;DHT22;12780;45.502;9.146;2022-07-06T06:10:09;25.60;99.90
24645;DHT22;12780;45.502;9.146;2022-07-06T06:12:35;25.50;99.90
24645;DHT22;12780;45.502;9.146;2022-07-06T06:15:00;25.40;99.90
24645;DHT22;12780;45.502;9.146;2022-07-06T06:17:27;25.40;99.90
24645;DHT22;12780;45.502;9.146;2022-07-06T06:19:53;25.40;99.90
24645;DHT22;12780;45.502;9.146;2022-07-06T06:22:18;25.50;99.90
24645;DHT22;12780;45.502;9.146;2022-07-06T06:24:44;25.60;99.90
24645;DHT22;12780;45.502;9.146;2022-07-06T06:27:11;25.60;99.90
24645;DHT22;12780;45.502;9.146;2022-07-06T06:29:36;25.60;99.90
24645;DHT22;12780;45.502;9.146;2022-07-06T06:32:02;25.60;99.90
24645;DHT22;12780;45.502;9.146;2022-07-06T06:34:29;25.70;99.90
24645;DHT22;12780;45.502;9.146;2022-07-06T06:36:54;25.90;99.90
24645;DHT22;12780;45.502;9.146;2022-07-06T06:39:20;26.00;99.90
24645;DHT22;12780;45.502;9.146;2022-07-06T06:41:46;26.10;99.90
24645;DHT22;12780;45.502;9.146;2022-07-06T06:44:11;26.20;99.90
24645;DHT22;12780;45.502;9.146;2022-07-06T06:46:37;26.30;99.90
24645;DHT22;12780;45.502;9.146;2022-07-06T06:49:03;26.40;99.90
24645;DHT22;12780;45.502;9.146;2022-07-06T06:51:29;26.40;99.90
24645;DHT22;12780;45.502;9.146;2022-07-06T06:53:54;26.50;99.90
24645;DHT22;12780;45.502;9.146;2022-07-06T06:56:20;26.60;99.90
24645;DHT22;12780;45.502;9.146;2022-07-06T06:58:46;26.60;99.90
24645;DHT22;12780;45.502;9.146;2022-07-06T07:01:11;26.60;99.90
24645;DHT22;12780;45.502;9.146;2022-07-06T07:03:37;26.70;99.90
24645;DHT22;12780;45.502;9.146;2022-07-06T07:06:03;26.70;99.90
24645;DHT22;12780;45.502;9.146;2022-07-06T07:08:28;26.60;99.90
24645;DHT22;12780;45.502;9.146;2022-07-06T07:10:54;26.70;99.90
24645;DHT22;12780;45.502;9.146;2022-07-06T07:13:19;26.70;99.90
24645;DHT22;12780;45.502;9.146;2022-07-06T07:15:45;26.60;99.90
24645;DHT22;12780;45.502;9.146;2022-07-06T07:18:11;26.60;99.90
24645;DHT22;12780;45.502;9.146;2022-07-06T07:20:36;26.70;99.90
24645;DHT22;12780;45.502;9.146;2022-07-06T07:23:02;26.80;99.90
24645;DHT22;12780;45.502;9.146;2022-07-06T07:25:28;26.90;99.90
24645;DHT22;12780;45.502;9.146;2022-07-06T07:27:54;27.00;99.90
24645;DHT22;12780;45.502;9.146;2022-07-06T07:30:20;27.10;99.90
24645;DHT22;12780;45.502;9.146;2022-07-06T07:32:46;27.10;99.90
24645;DHT22;12780;45.502;9.146;2022-07-06T07:35:12;27.20;99.90
24645;DHT22;12780;45.502;9.146;2022-07-06T07:37:38;27.20;99.90
24645;DHT22;12780;45.502;9.146;2022-07-06T07:40:04;27.30;99.90
24645;DHT22;12780;45.502;9.146;2022-07-06T07:42:31;27.30;99.90
24645;DHT22;12780;45.502;9.146;2022-07-06T07:44:56;27.30;99.90
24645;DHT22;12780;45.502;9.146;2022-07-06T07:47:22;27.40;99.90
24645;DHT22;12780;45.502;9.146;2022-07-06T07:49:48;27.50;99.90
24645;DHT22;12780;45.502;9.146;2022-07-06T07:52:14;27.50;99.90
24645;DHT22;12780;45.502;9.146;2022-07-06T07:54:39;27.40;99.90
24645;DHT22;12780;45.502;9.146;2022-07-06T07:57:05;27.50;99.90
24645;DHT22;12780;45.502;9.146;2022-07-06T07:59:31;27.60;99.90
24645;DHT22;12780;45.502;9.146;2022-07-06T08:01:56;27.60;99.90
24645;DHT22;12780;45.502;9.146;2022-07-06T08:04:22;27.60;99.90
24645;DHT22;12780;45.502;9.146;2022-07-06T08:06:48;27.60;99.90
24645;DHT22;12780;45.502;9.146;2022-07-06T08:09:14;27.70;99.90
24645;DHT22;12780;45.502;9.146;2022-07-06T08:11:41;27.80;99.90
24645;DHT22;12780;45.502;9.146;2022-07-06T08:14:06;27.80;99.90
24645;DHT22;12780;45.502;9.146;2022-07-06T08:16:32;27.80;99.90
24645;DHT22;12780;45.502;9.146;2022-07-06T08:18:58;27.90;99.90
24645;DHT22;12780;45.502;9.146;2022-07-06T08:21:24;28.00;99.90
24645;DHT22;12780;45.502;9.146;2022-07-06T08:23:50;28.10;99.90
24645;DHT22;12780;45.502;9.146;2022-07-06T08:26:16;28.20;99.90
24645;DHT22;12780;45.502;9.146;2022-07-06T08:28:41;28.20;99.90
24645;DHT22;12780;45.502;9.146;2022-07-06T08:31:07;28.30;99.90
24645;DHT22;12780;45.502;9.146;2022-07-06T08:33:33;28.40;99.90
24645;DHT22;12780;45.502;9.146;2022-07-06T08:35:59;28.40;99.90
24645;DHT22;12780;45.502;9.146;2022-07-06T08:38:24;28.40;99.90
24645;DHT22;12780;45.502;9.146;2022-07-06T08:40:51;28.50;99.90
24645;DHT22;12780;45.502;9.146;2022-07-06T08:43:17;28.60;99.90
24645;DHT22;12780;45.502;9.146;2022-07-06T08:45:45;28.70;99.90
24645;DHT22;12780;45.502;9.146;2022-07-06T08:48:12;28.90;99.90
24645;DHT22;12780;45.502;9.146;2022-07-06T08:50:38;29.00;99.90
24645;DHT22;12780;45.502;9.146;2022-07-06T08:53:04;29.00;99.90
24645;DHT22;12780;45.502;9.146;2022-07-06T08:55:30;29.00;99.90
24645;DHT22;12780;45.502;9.146;2022-07-06T08:57:57;29.00;99.90
24645;DHT22;12780;45.502;9.146;2022-07-06T09:00:25;29.10;99.90
24645;DHT22;12780;45.502;9.146;2022-07-06T09:02:51;29.20;99.90
24645;DHT22;12780;45.502;9.146;2022-07-06T09:05:21;29.20;99.90
24645;DHT22;12780;45.502;9.146;2022-07-06T09:07:50;29.10;99.90
24645;DHT22;12780;45.502;9.146;2022-07-06T09:10:20;29.20;99.90
24645;DHT22;12780;45.502;9.146;2022-07-06T09:12:47;29.30;99.90
24645;DHT22;12780;45.502;9.146;2022-07-06T09:15:13;29.40;99.90
24645;DHT22;12780;45.502;9.146;2022-07-06T09:17:40;29.30;99.90
24645;DHT22;12780;45.502;9.146;2022-07-06T09:20:10;29.40;99.90
24645;DHT22;12780;45.502;9.146;2022-07-06T09:22:37;29.40;99.90
24645;DHT22;12780;45.502;9.146;2022-07-06T09:25:21;29.40;99.90
24645;DHT22;12780;45.502;9.146;2022-07-06T09:27:47;29.50;99.90
24645;DHT22;12780;45.502;9.146;2022-07-06T09:30:16;29.50;99.90
24645;DHT22;12780;45.502;9.146;2022-07-06T09:32:44;29.60;99.90
24645;DHT22;12780;45.502;9.146;2022-07-06T09:35:35;29.60;99.90
24645;DHT22;12780;45.502;9.146;2022-07-06T09:38:12;29.70;99.90
24645;DHT22;12780;45.502;9.146;2022-07-06T09:40:42;29.70;99.90
24645;DHT22;12780;45.502;9.146;2022-07-06T09:43:15;29.70;99.90
24645;DHT22;12780;45.502;9.146;2022-07-06T09:45:53;29.80;99.90
24645;DHT22;12780;45.502;9.146;2022-07-06T09:48:24;29.90;99.90
24645;DHT22;12780;45.502;9.146;2022-07-06T09:50:52;29.90;99.90
24645;DHT22;12780;45.502;9.146;2022-07-06T09:53:19;30.00;99.90
24645;DHT22;12780;45.502;9.146;2022-07-06T09:55:50;30.10;99.90
24645;DHT22;12780;45.502;9.146;2022-07-06T09:58:16;30.20;99.90
24645;DHT22;12780;45.502;9.146;2022-07-06T10:00:42;30.30;99.90
24645;DHT22;12780;45.502;9.146;2022-07-06T10:03:09;30.30;99.90
24645;DHT22;12780;45.502;9.146;2022-07-06T10:05:39;30.40;99.90
24645;DHT22;12780;45.502;9.146;2022-07-06T10:08:07;30.40;99.90
24645;DHT22;12780;45.502;9.146;2022-07-06T10:10:35;30.40;99.90
24645;DHT22;12780;45.502;9.146;2022-07-06T10:13:01;30.40;99.90
24645;DHT22;12780;45.502;9.146;2022-07-06T10:15:29;30.40;99.90
24645;DHT22;12780;45.502;9.146;2022-07-06T10:18:00;30.50;99.90
24645;DHT22;12780;45.502;9.146;2022-07-06T10:20:31;30.70;99.90
24645;DHT22;12780;45.502;9.146;2022-07-06T10:22:59;30.80;99.90
24645;DHT22;12780;45.502;9.146;2022-07-06T10:25:26;30.70;99.90
24645;DHT22;12780;45.502;9.146;2022-07-06T10:27:53;30.70;99.90
24645;DHT22;12780;45.502;9.146;2022-07-06T10:30:19;30.70;99.90
24645;DHT22;12780;45.502;9.146;2022-07-06T10:32:47;30.80;99.90
24645;DHT22;12780;45.502;9.146;2022-07-06T10:35:14;30.80;99.90
24645;DHT22;12780;45.502;9.146;2022-07-06T10:37:40;31.00;99.90
24645;DHT22;12780;45.502;9.146;2022-07-06T10:40:07;31.00;99.90
24645;DHT22;12780;45.502;9.146;2022-07-06T10:43:01;31.10;99.90
24645;DHT22;12780;45.502;9.146;2022-07-06T10:50:37;31.40;99.90
24645;DHT22;12780;45.502;9.146;2022-07-06T10:53:02;31.40;99.90
24645;DHT22;12780;45.502;9.146;2022-07-06T10:55:37;31.20;99.90
24645;DHT22;12780;45.502;9.146;2022-07-06T10:58:04;31.20;99.90
24645;DHT22;12780;45.502;9.146;2022-07-06T11:00:52;31.20;99.90
24645;DHT22;12780;45.502;9.146;2022-07-06T11:03:36;31.20;99.90
24645;DHT22;12780;45.502;9.146;2022-07-06T11:08:49;31.20;99.90
24645;DHT22;12780;45.502;9.146;2022-07-06T11:11:17;31.30;99.90
24645;DHT22;12780;45.502;9.146;2022-07-06T11:13:47;31.40;99.90
24645;DHT22;12780;45.502;9.146;2022-07-06T11:16:14;31.50;99.90
24645;DHT22;12780;45.502;9.146;2022-07-06T11:18:41;31.50;99.90
24645;DHT22;12780;45.502;9.146;2022-07-06T11:21:17;31.60;99.90
24645;DHT22;12780;45.502;9.146;2022-07-06T11:23:44;31.50;99.90
24645;DHT22;12780;45.502;9.146;2022-07-06T11:26:11;31.50;99.90
24645;DHT22;12780;45.502;9.146;2022-07-06T11:28:37;31.60;99.90
24645;DHT22;12780;45.502;9.146;2022-07-06T11:31:03;31.60;99.90
24645;DHT22;12780;45.502;9.146;2022-07-06T11:33:29;31.90;99.90
24645;DHT22;12780;45.502;9.146;2022-07-06T11:36:19;32.00;99.90
24645;DHT22;12780;45.502;9.146;2022-07-06T11:38:47;32.10;99.90
24645;DHT22;12780;45.502;9.146;2022-07-06T11:41:14;32.20;99.90
24645;DHT22;12780;45.502;9.146;2022-07-06T11:43:44;32.20;99.90
24645;DHT22;12780;45.502;9.146;2022-07-06T11:46:25;32.40;99.90
24645;DHT22;12780;45.502;9.146;2022-07-06T11:51:22;32.40;99.90
24645;DHT22;12780;45.502;9.146;2022-07-06T11:53:55;32.50;99.90
24645;DHT22;12780;45.502;9.146;2022-07-06T11:56:21;32.60;99.90
24645;DHT22;12780;45.502;9.146;2022-07-06T11:58:51;32.70;99.90
24645;DHT22;12780;45.502;9.146;2022-07-06T12:01:17;32.90;99.90
24645;DHT22;12780;45.502;9.146;2022-07-06T12:03:43;32.90;99.90
24645;DHT22;12780;45.502;9.146;2022-07-06T12:06:18;32.70;99.90
24645;DHT22;12780;45.502;9.146;2022-07-06T12:08:55;32.60;99.90
24645;DHT22;12780;45.502;9.146;2022-07-06T12:11:33;32.30;99.90
24645;DHT22;12780;45.502;9.146;2022-07-06T12:14:11;32.20;99.90
24645;DHT22;12780;45.502;9.146;2022-07-06T12:16:38;32.20;99.90
24645;DHT22;12780;45.502;9.146;2022-07-06T12:19:05;32.30;99.90
24645;DHT22;12780;45.502;9.146;2022-07-06T12:21:31;32.50;99.90
24645;DHT22;12780;45.502;9.146;2022-07-06T12:23:58;32.60;99.90
24645;DHT22;12780;45.502;9.146;2022-07-06T12:26:26;32.70;99.90
24645;DHT22;12780;45.502;9.146;2022-07-06T12:29:09;32.70;99.90
24645;DHT22;12780;45.502;9.146;2022-07-06T12:34:05;32.80;99.90
24645;DHT22;12780;45.502;9.146;2022-07-06T12:36:31;32.90;99.90
24645;DHT22;12780;45.502;9.146;2022-07-06T12:39:11;32.90;99.90
24645;DHT22;12780;45.502;9.146;2022-07-06T12:41:37;32.80;99.90
24645;DHT22;12780;45.502;9.146;2022-07-06T12:44:06;32.70;99.90
24645;DHT22;12780;45.502;9.146;2022-07-06T12:46:38;32.70;99.90
24645;DHT22;12780;45.502;9.146;2022-07-06T12:49:11;32.80;99.90
24645;DHT22;12780;45.502;9.146;2022-07-06T12:51:57;32.90;99.90
24645;DHT22;12780;45.502;9.146;2022-07-06T12:54:28;33.10;99.90
24645;DHT22;12780;45.502;9.146;2022-07-06T12:59:56;33.50;99.90
24645;DHT22;12780;45.502;9.146;2022-07-06T13:02:29;33.60;99.90
24645;DHT22;12780;45.502;9.146;2022-07-06T13:05:04;33.60;99.90
24645;DHT22;12780;45.502;9.146;2022-07-06T13:07:31;33.80;99.90
24645;DHT22;12780;45.502;9.146;2022-07-06T13:09:58;33.80;99.90
24645;DHT22;12780;45.502;9.146;2022-07-06T13:12:24;33.90;99.90
24645;DHT22;12780;45.502;9.146;2022-07-06T13:14:50;33.80;99.90
24645;DHT22;12780;45.502;9.146;2022-07-06T13:17:17;33.70;99.90
24645;DHT22;12780;45.502;9.146;2022-07-06T13:19:42;33.70;99.90
24645;DHT22;12780;45.502;9.146;2022-07-06T13:22:08;33.50;99.90
24645;DHT22;12780;45.502;9.146;2022-07-06T13:24:34;33.30;99.90
24645;DHT22;12780;45.502;9.146;2022-07-06T13:27:01;33.10;99.90
24645;DHT22;12780;45.502;9.146;2022-07-06T13:29:27;33.10;99.90
24645;DHT22;12780;45.502;9.146;2022-07-06T13:31:53;33.20;99.90
24645;DHT22;12780;45.502;9.146;2022-07-06T13:34:19;33.20;99.90
24645;DHT22;12780;45.502;9.146;2022-07-06T13:36:45;33.30;99.90
24645;DHT22;12780;45.502;9.146;2022-07-06T13:39:11;33.40;99.90
24645;DHT22;12780;45.502;9.146;2022-07-06T13:41:37;33.50;99.90
24645;DHT22;12780;45.502;9.146;2022-07-06T13:44:03;33.60;99.90
24645;DHT22;12780;45.502;9.146;2022-07-06T13:46:30;33.60;99.90
24645;DHT22;12780;45.502;9.146;2022-07-06T13:48:56;33.70;99.90
24645;DHT22;12780;45.502;9.146;2022-07-06T13:51:23;33.60;99.90
24645;DHT22;12780;45.502;9.146;2022-07-06T13:53:50;33.60;99.90
24645;DHT22;12780;45.502;9.146;2022-07-06T13:56:16;33.40;99.90
24645;DHT22;12780;45.502;9.146;2022-07-06T13:58:42;33.20;99.90
24645;DHT22;12780;45.502;9.146;2022-07-06T14:01:09;32.90;99.90
24645;DHT22;12780;45.502;9.146;2022-07-06T14:03:35;32.80;99.90
24645;DHT22;12780;45.502;9.146;2022-07-06T14:06:03;32.70;99.90
24645;DHT22;12780;45.502;9.146;2022-07-06T14:08:29;32.70;99.90
24645;DHT22;12780;45.502;9.146;2022-07-06T14:10:55;32.80;99.90
24645;DHT22;12780;45.502;9.146;2022-07-06T14:13:21;32.80;99.90
24645;DHT22;12780;45.502;9.146;2022-07-06T14:15:47;32.90;99.90
24645;DHT22;12780;45.502;9.146;2022-07-06T14:18:13;32.80;99.90
24645;DHT22;12780;45.502;9.146;2022-07-06T14:20:40;32.80;99.90
24645;DHT22;12780;45.502;9.146;2022-07-06T14:23:06;32.80;99.90
24645;DHT22;12780;45.502;9.146;2022-07-06T14:25:32;32.80;99.90
24645;DHT22;12780;45.502;9.146;2022-07-06T14:27:58;32.90;99.90
24645;DHT22;12780;45.502;9.146;2022-07-06T14:30:25;33.00;99.90
24645;DHT22;12780;45.502;9.146;2022-07-06T14:32:51;32.90;99.90
24645;DHT22;12780;45.502;9.146;2022-07-06T14:35:16;32.80;99.90
24645;DHT22;12780;45.502;9.146;2022-07-06T14:37:42;32.90;99.90
24645;DHT22;12780;45.502;9.146;2022-07-06T14:40:08;32.90;99.90
24645;DHT22;12780;45.502;9.146;2022-07-06T14:42:34;32.80;99.90
24645;DHT22;12780;45.502;9.146;2022-07-06T14:45:00;32.70;99.90
24645;DHT22;12780;45.502;9.146;2022-07-06T14:47:26;32.70;99.90
24645;DHT22;12780;45.502;9.146;2022-07-06T14:49:51;32.70;99.90
24645;DHT22;12780;45.502;9.146;2022-07-06T14:52:18;32.60;99.90
24645;DHT22;12780;45.502;9.146;2022-07-06T14:54:44;32.70;99.90
24645;DHT22;12780;45.502;9.146;2022-07-06T14:57:09;32.70;99.90
24645;DHT22;12780;45.502;9.146;2022-07-06T14:59:35;32.80;99.90
24645;DHT22;12780;45.502;9.146;2022-07-06T15:02:01;32.80;99.90
24645;DHT22;12780;45.502;9.146;2022-07-06T15:04:27;32.80;99.90
24645;DHT22;12780;45.502;9.146;2022-07-06T15:06:53;32.80;99.90
24645;DHT22;12780;45.502;9.146;2022-07-06T15:09:19;32.80;99.90
24645;DHT22;12780;45.502;9.146;2022-07-06T15:11:45;32.80;99.90
24645;DHT22;12780;45.502;9.146;2022-07-06T15:14:12;32.70;99.90
24645;DHT22;12780;45.502;9.146;2022-07-06T15:16:38;32.70;99.90
24645;DHT22;12780;45.502;9.146;2022-07-06T15:19:04;32.70;99.90
24645;DHT22;12780;45.502;9.146;2022-07-06T15:21:30;32.80;99.90
24645;DHT22;12780;45.502;9.146;2022-07-06T15:23:56;32.70;99.90
24645;DHT22;12780;45.502;9.146;2022-07-06T15:26:22;32.70;99.90
24645;DHT22;12780;45.502;9.146;2022-07-06T15:28:50;32.70;99.90
24645;DHT22;12780;45.502;9.146;2022-07-06T15:31:15;32.70;99.90
24645;DHT22;12780;45.502;9.146;2022-07-06T15:33:41;32.60;99.90
24645;DHT22;12780;45.502;9.146;2022-07-06T15:36:07;32.60;99.90
24645;DHT22;12780;45.502;9.146;2022-07-06T15:38:32;32.60;99.90
24645;DHT22;12780;45.502;9.146;2022-07-06T15:41:03;32.60;99.90
24645;DHT22;12780;45.502;9.146;2022-07-06T15:43:32;32.50;99.90
24645;DHT22;12780;45.502;9.146;2022-07-06T15:45:59;32.40;99.90
24645;DHT22;12780;45.502;9.146;2022-07-06T15:48:27;32.40;99.90